PWSweather.com
Personal Weather Stations
Station Observations
RODOLIVOS
Serres, Rodolivos SerresGR 62041

SerresRodolivos SerresGR 62041

Lat: 40.920725, Lon: 23.975814

Elevation: 1161

Station Type: Davis Vantage Vue

http://rodolivos-weather.gr/

High Low Average
Temperature 78.8°F26.0°C 60.5°F15.8°C 71.1°F21.7°C
Dew Point 55.5°F13.1°C 49.1°F9.5°C 51.1°F10.6°C
Winds 5.8 mph 9.3 kmh Calm Calm 2.0 mph S3.2 kmh S
Wind Gusts 11.5 mph18.5 kmh -- 4.0 mph6.4 kmh
Humidity 71% 36% 50%
Pressure 29.98 in1015.2 mb 29.89 in1012.2 mb -
Precipitation 0.00 in0.0 mm - -
Hour Temp Dew Point Humidity Winds Wind Gusts Pressure Precip Precip Rate Daily Precip Total
06:20 AM 60.5°F15.8°C 50.3°F10.2°C 69% Calm Calm 1.2 mph1.9 kmh 29.89 in1012.2 mb - 0.00 in0.0 mm 0.00 in0.0 mm
06:30 AM 60.5°F15.8°C 51.0°F10.6°C 71% Calm Calm 3.5 mph5.6 kmh 29.89 in1012.2 mb - 0.00 in0.0 mm 0.00 in0.0 mm
06:40 AM 61.8°F16.6°C 51.1°F10.6°C 68% Calm Calm -- 29.89 in1012.2 mb - 0.00 in0.0 mm 0.00 in0.0 mm
06:50 AM 63.2°F17.3°C 51.6°F10.9°C 66% Calm Calm 2.3 mph3.7 kmh 29.90 in1012.5 mb - 0.00 in0.0 mm 0.00 in0.0 mm
07:00 AM 63.2°F17.3°C 52.1°F11.2°C 67% Calm Calm -- 29.90 in1012.5 mb - 0.00 in0.0 mm 0.00 in0.0 mm
07:10 AM 63.8°F17.7°C 52.2°F11.2°C 66% 1.2 mph NW1.9 kmh NW 1.2 mph1.9 kmh 29.90 in1012.5 mb - 0.00 in0.0 mm 0.00 in0.0 mm
07:20 AM 64.1°F17.8°C 51.7°F10.9°C 64% Calm Calm 2.3 mph3.7 kmh 29.90 in1012.5 mb - 0.00 in0.0 mm 0.00 in0.0 mm
07:30 AM 64.1°F17.8°C 51.7°F10.9°C 64% 1.2 mph W1.9 kmh W 2.3 mph3.7 kmh 29.91 in1012.9 mb - 0.00 in0.0 mm 0.00 in0.0 mm
07:40 AM 63.9°F17.7°C 51.5°F10.8°C 64% 1.2 mph S1.9 kmh S 3.5 mph5.6 kmh 29.91 in1012.9 mb - 0.00 in0.0 mm 0.00 in0.0 mm
07:50 AM 64.2°F17.9°C 51.7°F10.9°C 64% 2.3 mph S3.7 kmh S 3.5 mph5.6 kmh 29.91 in1012.9 mb - 0.00 in0.0 mm 0.00 in0.0 mm
08:00 AM 64.6°F18.1°C 51.8°F11.0°C 63% 1.2 mph S1.9 kmh S 3.5 mph5.6 kmh 29.91 in1012.9 mb - 0.00 in0.0 mm 0.00 in0.0 mm
08:10 AM 65.1°F18.4°C 52.2°F11.2°C 63% 1.2 mph S1.9 kmh S 3.5 mph5.6 kmh 29.91 in1012.9 mb - 0.00 in0.0 mm 0.00 in0.0 mm
08:20 AM 65.9°F18.8°C 51.6°F10.9°C 60% 1.2 mph ENE1.9 kmh ENE 3.5 mph5.6 kmh 29.91 in1012.9 mb - 0.00 in0.0 mm 0.00 in0.0 mm
08:30 AM 66.6°F19.2°C 51.8°F11.0°C 59% 1.2 mph NNW1.9 kmh NNW 2.3 mph3.7 kmh 29.92 in1013.2 mb - 0.00 in0.0 mm 0.00 in0.0 mm
08:40 AM 66.9°F19.4°C 52.1°F11.2°C 59% 1.2 mph S1.9 kmh S 3.5 mph5.6 kmh 29.92 in1013.2 mb - 0.00 in0.0 mm 0.00 in0.0 mm
08:50 AM 67.5°F19.7°C 52.2°F11.2°C 58% 2.3 mph WSW3.7 kmh WSW 4.6 mph7.4 kmh 29.92 in1013.2 mb - 0.00 in0.0 mm 0.00 in0.0 mm
09:00 AM 68.1°F20.1°C 52.8°F11.6°C 58% 1.2 mph S1.9 kmh S 3.5 mph5.6 kmh 29.92 in1013.2 mb - 0.00 in0.0 mm 0.00 in0.0 mm
09:10 AM 68.0°F20.0°C 51.7°F10.9°C 56% 1.2 mph S1.9 kmh S 3.5 mph5.6 kmh 29.92 in1013.2 mb - 0.00 in0.0 mm 0.00 in0.0 mm
09:20 AM 69.2°F20.7°C 51.8°F11.0°C 54% 2.3 mph SSW3.7 kmh SSW 3.5 mph5.6 kmh 29.93 in1013.5 mb - 0.00 in0.0 mm 0.00 in0.0 mm
09:40 AM 70.7°F21.5°C 52.2°F11.2°C 52% 2.3 mph W3.7 kmh W 3.5 mph5.6 kmh 29.93 in1013.5 mb - 0.00 in0.0 mm 0.00 in0.0 mm
09:50 AM 71.1°F21.7°C 52.6°F11.4°C 52% 1.2 mph SSE1.9 kmh SSE 3.5 mph5.6 kmh 29.94 in1013.9 mb - 0.00 in0.0 mm 0.00 in0.0 mm
10:00 AM 70.9°F21.6°C 49.6°F9.8°C 47% Calm Calm 2.3 mph3.7 kmh 29.93 in1013.5 mb - 0.00 in0.0 mm 0.00 in0.0 mm
10:10 AM 72.0°F22.2°C 49.5°F9.7°C 45% 1.2 mph WNW1.9 kmh WNW 2.3 mph3.7 kmh 29.94 in1013.9 mb - 0.00 in0.0 mm 0.00 in0.0 mm
10:20 AM 71.9°F22.2°C 50.0°F10.0°C 46% 3.5 mph S5.6 kmh S 5.8 mph9.3 kmh 29.95 in1014.2 mb - 0.00 in0.0 mm 0.00 in0.0 mm
10:30 AM 72.9°F22.7°C 50.9°F10.5°C 46% 1.2 mph NW1.9 kmh NW 3.5 mph5.6 kmh 29.95 in1014.2 mb - 0.00 in0.0 mm 0.00 in0.0 mm
10:40 AM 72.9°F22.7°C 50.9°F10.5°C 46% 2.3 mph SE3.7 kmh SE 8.1 mph13.0 kmh 29.95 in1014.2 mb - 0.00 in0.0 mm 0.00 in0.0 mm
10:50 AM 72.7°F22.6°C 51.9°F11.1°C 48% 2.3 mph NW3.7 kmh NW 3.5 mph5.6 kmh 29.95 in1014.2 mb - 0.00 in0.0 mm 0.00 in0.0 mm
11:00 AM 72.9°F22.7°C 52.1°F11.2°C 48% 2.3 mph S3.7 kmh S 9.2 mph14.8 kmh 29.95 in1014.2 mb - 0.00 in0.0 mm 0.00 in0.0 mm
11:10 AM 73.6°F23.1°C 52.1°F11.2°C 47% 3.5 mph S5.6 kmh S 6.9 mph11.1 kmh 29.94 in1013.9 mb - 0.00 in0.0 mm 0.00 in0.0 mm
11:20 AM 74.2°F23.4°C 51.5°F10.8°C 45% 2.3 mph NNW3.7 kmh NNW 3.5 mph5.6 kmh 29.94 in1013.9 mb - 0.00 in0.0 mm 0.00 in0.0 mm
11:30 AM 74.6°F23.7°C 50.6°F10.3°C 43% 1.2 mph S1.9 kmh S 4.6 mph7.4 kmh 29.94 in1013.9 mb - 0.00 in0.0 mm 0.00 in0.0 mm
11:40 AM 74.6°F23.7°C 49.3°F9.6°C 41% Calm Calm 1.2 mph1.9 kmh 29.94 in1013.9 mb - 0.00 in0.0 mm 0.00 in0.0 mm
11:50 AM 74.7°F23.7°C 50.1°F10.1°C 42% 1.2 mph WSW1.9 kmh WSW 3.5 mph5.6 kmh 29.94 in1013.9 mb - 0.00 in0.0 mm 0.00 in0.0 mm
12:00 PM 74.4°F23.6°C 49.2°F9.6°C 41% Calm Calm 3.5 mph5.6 kmh 29.93 in1013.5 mb - 0.00 in0.0 mm 0.00 in0.0 mm
12:10 PM 74.3°F23.5°C 49.7°F9.8°C 42% 3.5 mph SE5.6 kmh SE 6.9 mph11.1 kmh 29.94 in1013.9 mb - 0.00 in0.0 mm 0.00 in0.0 mm
12:20 PM 75.1°F23.9°C 49.8°F9.9°C 41% 2.3 mph SSE3.7 kmh SSE 3.5 mph5.6 kmh 29.94 in1013.9 mb - 0.00 in0.0 mm 0.00 in0.0 mm
12:30 PM 75.8°F24.3°C 50.4°F10.2°C 41% 2.3 mph NNW3.7 kmh NNW 4.6 mph7.4 kmh 29.94 in1013.9 mb - 0.00 in0.0 mm 0.00 in0.0 mm
12:40 PM 75.2°F24.0°C 49.2°F9.6°C 40% 1.2 mph SE1.9 kmh SE 3.5 mph5.6 kmh 29.94 in1013.9 mb - 0.00 in0.0 mm 0.00 in0.0 mm
12:50 PM 74.2°F23.4°C 49.6°F9.8°C 42% 1.2 mph WSW1.9 kmh WSW 3.5 mph5.6 kmh 29.94 in1013.9 mb - 0.00 in0.0 mm 0.00 in0.0 mm
01:00 PM 75.0°F23.9°C 49.7°F9.8°C 41% 1.2 mph NNE1.9 kmh NNE 6.9 mph11.1 kmh 29.94 in1013.9 mb - 0.00 in0.0 mm 0.00 in0.0 mm
01:10 PM 74.4°F23.6°C 49.1°F9.5°C 41% Calm Calm 1.2 mph1.9 kmh 29.93 in1013.5 mb - 0.00 in0.0 mm 0.00 in0.0 mm
01:20 PM 74.9°F23.8°C 49.6°F9.8°C 41% 3.5 mph SSE5.6 kmh SSE 3.5 mph5.6 kmh 29.93 in1013.5 mb - 0.00 in0.0 mm 0.00 in0.0 mm
01:30 PM 76.3°F24.6°C 49.5°F9.7°C 39% 1.2 mph SE1.9 kmh SE 3.5 mph5.6 kmh 29.93 in1013.5 mb - 0.00 in0.0 mm 0.00 in0.0 mm
01:40 PM 76.7°F24.8°C 50.6°F10.3°C 40% 2.3 mph S3.7 kmh S 5.8 mph9.3 kmh 29.93 in1013.5 mb - 0.00 in0.0 mm 0.00 in0.0 mm
01:50 PM 77.3°F25.2°C 49.7°F9.8°C 38% 1.2 mph SW1.9 kmh SW 2.3 mph3.7 kmh 29.93 in1013.5 mb - 0.00 in0.0 mm 0.00 in0.0 mm
02:00 PM 78.2°F25.7°C 49.8°F9.9°C 37% 3.5 mph S5.6 kmh S 6.9 mph11.1 kmh 29.93 in1013.5 mb - 0.00 in0.0 mm 0.00 in0.0 mm
02:10 PM 77.0°F25.0°C 49.5°F9.7°C 38% 2.3 mph NW3.7 kmh NW 3.5 mph5.6 kmh 29.92 in1013.2 mb - 0.00 in0.0 mm 0.00 in0.0 mm
02:20 PM 77.8°F25.4°C 50.2°F10.1°C 38% 3.5 mph WNW5.6 kmh WNW 5.8 mph9.3 kmh 29.92 in1013.2 mb - 0.00 in0.0 mm 0.00 in0.0 mm
02:30 PM 78.1°F25.6°C 50.4°F10.2°C 38% 3.5 mph W5.6 kmh W 6.9 mph11.1 kmh 29.92 in1013.2 mb - 0.00 in0.0 mm 0.00 in0.0 mm
02:40 PM 78.8°F26.0°C 49.6°F9.8°C 36% 5.8 mph WNW9.3 kmh WNW 11.5 mph18.5 kmh 29.92 in1013.2 mb - 0.00 in0.0 mm 0.00 in0.0 mm
02:50 PM 78.7°F25.9°C 49.5°F9.7°C 36% 3.5 mph NW5.6 kmh NW 3.5 mph5.6 kmh 29.92 in1013.2 mb - 0.00 in0.0 mm 0.00 in0.0 mm
03:00 PM 78.1°F25.6°C 50.4°F10.2°C 38% 4.6 mph NW7.4 kmh NW 10.4 mph16.7 kmh 29.92 in1013.2 mb - 0.00 in0.0 mm 0.00 in0.0 mm
03:10 PM 78.3°F25.7°C 49.8°F9.9°C 37% 3.5 mph NW5.6 kmh NW 8.1 mph13.0 kmh 29.92 in1013.2 mb - 0.00 in0.0 mm 0.00 in0.0 mm
03:20 PM 78.4°F25.8°C 50.0°F10.0°C 37% 5.8 mph NW9.3 kmh NW 8.1 mph13.0 kmh 29.92 in1013.2 mb - 0.00 in0.0 mm 0.00 in0.0 mm
03:30 PM 78.0°F25.6°C 49.7°F9.8°C 37% 3.5 mph N5.6 kmh N 4.6 mph7.4 kmh 29.92 in1013.2 mb - 0.00 in0.0 mm 0.00 in0.0 mm
03:40 PM 78.1°F25.6°C 49.7°F9.8°C 37% 2.3 mph WSW3.7 kmh WSW 5.8 mph9.3 kmh 29.92 in1013.2 mb - 0.00 in0.0 mm 0.00 in0.0 mm
03:50 PM 77.8°F25.4°C 49.4°F9.7°C 37% 2.3 mph NW3.7 kmh NW 4.6 mph7.4 kmh 29.92 in1013.2 mb - 0.00 in0.0 mm 0.00 in0.0 mm
04:00 PM 78.3°F25.7°C 50.6°F10.3°C 38% 3.5 mph WSW5.6 kmh WSW 5.8 mph9.3 kmh 29.91 in1012.9 mb - 0.00 in0.0 mm 0.00 in0.0 mm
04:10 PM 78.1°F25.6°C 51.2°F10.7°C 39% 3.5 mph W5.6 kmh W 6.9 mph11.1 kmh 29.92 in1013.2 mb - 0.00 in0.0 mm 0.00 in0.0 mm
04:20 PM 77.8°F25.4°C 52.2°F11.2°C 41% 2.3 mph WNW3.7 kmh WNW 5.8 mph9.3 kmh 29.91 in1012.9 mb - 0.00 in0.0 mm 0.00 in0.0 mm
06:00 PM 74.5°F23.6°C 51.8°F11.0°C 45% 2.3 mph SSW3.7 kmh SSW 4.6 mph7.4 kmh 29.91 in1012.9 mb - 0.00 in0.0 mm 0.00 in0.0 mm
06:10 PM 73.8°F23.2°C 51.1°F10.6°C 45% 1.2 mph SSE1.9 kmh SSE 1.2 mph1.9 kmh 29.91 in1012.9 mb - 0.00 in0.0 mm 0.00 in0.0 mm
06:20 PM 73.7°F23.2°C 51.6°F10.9°C 46% 2.3 mph S3.7 kmh S 3.5 mph5.6 kmh 29.92 in1013.2 mb - 0.00 in0.0 mm 0.00 in0.0 mm
06:30 PM 74.0°F23.3°C 51.3°F10.7°C 45% 1.2 mph S1.9 kmh S 1.2 mph1.9 kmh 29.92 in1013.2 mb - 0.00 in0.0 mm 0.00 in0.0 mm
06:40 PM 74.7°F23.7°C 51.9°F11.1°C 45% 1.2 mph SW1.9 kmh SW 3.5 mph5.6 kmh 29.92 in1013.2 mb - 0.00 in0.0 mm 0.00 in0.0 mm
06:50 PM 74.8°F23.8°C 51.4°F10.8°C 44% 1.2 mph SSE1.9 kmh SSE 3.5 mph5.6 kmh 29.92 in1013.2 mb - 0.00 in0.0 mm 0.00 in0.0 mm
07:00 PM 74.4°F23.6°C 51.7°F10.9°C 45% Calm Calm 1.2 mph1.9 kmh 29.93 in1013.5 mb - 0.00 in0.0 mm 0.00 in0.0 mm
07:10 PM 74.3°F23.5°C 51.0°F10.6°C 44% Calm Calm 1.2 mph1.9 kmh 29.93 in1013.5 mb - 0.00 in0.0 mm 0.00 in0.0 mm
07:20 PM 73.7°F23.2°C 51.0°F10.6°C 45% Calm Calm 1.2 mph1.9 kmh 29.93 in1013.5 mb - 0.00 in0.0 mm 0.00 in0.0 mm
07:30 PM 72.6°F22.6°C 50.6°F10.3°C 46% Calm Calm -- 29.93 in1013.5 mb - 0.00 in0.0 mm 0.00 in0.0 mm
07:40 PM 71.1°F21.7°C 54.1°F12.3°C 55% 1.2 mph NNW1.9 kmh NNW 3.5 mph5.6 kmh 29.94 in1013.9 mb - 0.00 in0.0 mm 0.00 in0.0 mm
07:50 PM 69.5°F20.8°C 54.6°F12.6°C 59% Calm Calm 1.2 mph1.9 kmh 29.94 in1013.9 mb - 0.00 in0.0 mm 0.00 in0.0 mm
08:00 PM 67.7°F19.8°C 55.5°F13.1°C 65% Calm Calm 1.2 mph1.9 kmh 29.95 in1014.2 mb - 0.00 in0.0 mm 0.00 in0.0 mm
08:10 PM 66.4°F19.1°C 54.3°F12.4°C 65% 1.2 mph ENE1.9 kmh ENE 3.5 mph5.6 kmh 29.95 in1014.2 mb - 0.00 in0.0 mm 0.00 in0.0 mm
08:20 PM 66.4°F19.1°C 53.0°F11.7°C 62% Calm Calm 1.2 mph1.9 kmh 29.95 in1014.2 mb - 0.00 in0.0 mm 0.00 in0.0 mm
08:30 PM 65.8°F18.8°C 52.4°F11.3°C 62% Calm Calm 3.5 mph5.6 kmh 29.95 in1014.2 mb - 0.00 in0.0 mm 0.00 in0.0 mm
08:40 PM 65.4°F18.6°C 52.0°F11.1°C 62% 1.2 mph E1.9 kmh E 2.3 mph3.7 kmh 29.96 in1014.6 mb - 0.00 in0.0 mm 0.00 in0.0 mm
08:50 PM 64.9°F18.3°C 51.6°F10.9°C 62% 1.2 mph E1.9 kmh E 1.2 mph1.9 kmh 29.96 in1014.6 mb - 0.00 in0.0 mm 0.00 in0.0 mm
09:00 PM 64.5°F18.1°C 51.2°F10.7°C 62% 1.2 mph ESE1.9 kmh ESE 3.5 mph5.6 kmh 29.96 in1014.6 mb - 0.00 in0.0 mm 0.00 in0.0 mm
09:10 PM 64.3°F17.9°C 51.0°F10.6°C 62% 1.2 mph E1.9 kmh E 2.3 mph3.7 kmh 29.97 in1014.9 mb - 0.00 in0.0 mm 0.00 in0.0 mm
09:20 PM 64.4°F18.0°C 51.5°F10.8°C 63% 2.3 mph E3.7 kmh E 3.5 mph5.6 kmh 29.97 in1014.9 mb - 0.00 in0.0 mm 0.00 in0.0 mm
09:30 PM 64.4°F18.0°C 51.1°F10.6°C 62% 1.2 mph E1.9 kmh E 3.5 mph5.6 kmh 29.98 in1015.2 mb - 0.00 in0.0 mm 0.00 in0.0 mm
09:40 PM 64.7°F18.2°C 51.4°F10.8°C 62% 2.3 mph E3.7 kmh E 4.6 mph7.4 kmh 29.98 in1015.2 mb - 0.00 in0.0 mm 0.00 in0.0 mm
09:50 PM 64.1°F17.8°C 51.2°F10.7°C 63% Calm Calm 1.2 mph1.9 kmh 29.98 in1015.2 mb - 0.00 in0.0 mm 0.00 in0.0 mm
10:00 PM 63.1°F17.3°C 51.5°F10.8°C 66% Calm Calm -- 29.98 in1015.2 mb - 0.00 in0.0 mm 0.00 in0.0 mm
10:10 PM 62.6°F17.0°C 51.5°F10.8°C 67% 1.2 mph E1.9 kmh E 1.2 mph1.9 kmh 29.98 in1015.2 mb - 0.00 in0.0 mm 0.00 in0.0 mm